sensor_id;sensor_type;location;lat;lon;timestamp;P1;durP1;ratioP1;P2;durP2;ratioP2
72573;SDS011;60603;52.548;13.420;2022-12-07T00:01:16;13.57;;;6.10;;
72573;SDS011;60603;52.548;13.420;2022-12-07T00:03:47;15.27;;;6.05;;
72573;SDS011;60603;52.548;13.420;2022-12-07T00:06:14;12.75;;;5.88;;
72573;SDS011;60603;52.548;13.420;2022-12-07T00:08:41;16.50;;;6.22;;
72573;SDS011;60603;52.548;13.420;2022-12-07T00:11:08;13.25;;;5.70;;
72573;SDS011;60603;52.548;13.420;2022-12-07T00:13:35;12.70;;;5.18;;
72573;SDS011;60603;52.548;13.420;2022-12-07T00:18:31;13.60;;;5.95;;
72573;SDS011;60603;52.548;13.420;2022-12-07T00:21:03;12.18;;;5.78;;
72573;SDS011;60603;52.548;13.420;2022-12-07T00:23:31;12.25;;;5.95;;
72573;SDS011;60603;52.548;13.420;2022-12-07T00:26:02;16.77;;;7.15;;
72573;SDS011;60603;52.548;13.420;2022-12-07T00:28:36;10.55;;;4.45;;
72573;SDS011;60603;52.548;13.420;2022-12-07T00:31:21;14.05;;;5.97;;
72573;SDS011;60603;52.548;13.420;2022-12-07T00:33:48;14.77;;;5.72;;
72573;SDS011;60603;52.548;13.420;2022-12-07T00:36:18;14.07;;;6.53;;
72573;SDS011;60603;52.548;13.420;2022-12-07T00:38:45;15.07;;;6.38;;
72573;SDS011;60603;52.548;13.420;2022-12-07T00:41:12;12.80;;;6.18;;
72573;SDS011;60603;52.548;13.420;2022-12-07T00:43:42;16.15;;;6.85;;
72573;SDS011;60603;52.548;13.420;2022-12-07T00:46:09;14.00;;;5.68;;
72573;SDS011;60603;52.548;13.420;2022-12-07T00:48:36;13.25;;;5.63;;
72573;SDS011;60603;52.548;13.420;2022-12-07T00:51:02;13.65;;;5.95;;
72573;SDS011;60603;52.548;13.420;2022-12-07T00:53:28;13.55;;;6.25;;
72573;SDS011;60603;52.548;13.420;2022-12-07T00:55:54;14.82;;;6.57;;
72573;SDS011;60603;52.548;13.420;2022-12-07T00:58:22;13.05;;;6.55;;
72573;SDS011;60603;52.548;13.420;2022-12-07T01:00:48;11.00;;;5.40;;
72573;SDS011;60603;52.548;13.420;2022-12-07T01:03:14;14.40;;;6.60;;
72573;SDS011;60603;52.548;13.420;2022-12-07T01:05:49;10.80;;;5.18;;
72573;SDS011;60603;52.548;13.420;2022-12-07T01:08:16;13.80;;;6.50;;
72573;SDS011;60603;52.548;13.420;2022-12-07T01:10:42;11.45;;;5.68;;
72573;SDS011;60603;52.548;13.420;2022-12-07T01:13:08;11.32;;;5.35;;
72573;SDS011;60603;52.548;13.420;2022-12-07T01:15:34;13.60;;;5.65;;
72573;SDS011;60603;52.548;13.420;2022-12-07T01:17:59;14.73;;;6.38;;
72573;SDS011;60603;52.548;13.420;2022-12-07T01:20:25;10.63;;;5.07;;
72573;SDS011;60603;52.548;13.420;2022-12-07T01:22:51;12.15;;;5.97;;
72573;SDS011;60603;52.548;13.420;2022-12-07T01:25:17;10.50;;;5.30;;
72573;SDS011;60603;52.548;13.420;2022-12-07T01:27:44;12.02;;;5.57;;
72573;SDS011;60603;52.548;13.420;2022-12-07T01:30:10;15.27;;;6.35;;
72573;SDS011;60603;52.548;13.420;2022-12-07T01:32:36;12.98;;;5.70;;
72573;SDS011;60603;52.548;13.420;2022-12-07T01:35:02;11.68;;;5.72;;
72573;SDS011;60603;52.548;13.420;2022-12-07T01:37:33;11.63;;;5.70;;
72573;SDS011;60603;52.548;13.420;2022-12-07T01:39:59;11.88;;;5.95;;
72573;SDS011;60603;52.548;13.420;2022-12-07T01:42:25;10.93;;;5.20;;
72573;SDS011;60603;52.548;13.420;2022-12-07T01:48:00;12.48;;;5.28;;
72573;SDS011;60603;52.548;13.420;2022-12-07T01:50:27;10.60;;;5.32;;
72573;SDS011;60603;52.548;13.420;2022-12-07T01:52:53;10.40;;;4.72;;
72573;SDS011;60603;52.548;13.420;2022-12-07T01:55:21;10.90;;;4.55;;
72573;SDS011;60603;52.548;13.420;2022-12-07T01:57:48;10.13;;;4.35;;
72573;SDS011;60603;52.548;13.420;2022-12-07T02:00:15;9.30;;;4.50;;
72573;SDS011;60603;52.548;13.420;2022-12-07T02:02:42;9.55;;;5.18;;
72573;SDS011;60603;52.548;13.420;2022-12-07T02:05:11;9.05;;;4.65;;
72573;SDS011;60603;52.548;13.420;2022-12-07T02:07:38;11.40;;;5.15;;
72573;SDS011;60603;52.548;13.420;2022-12-07T02:10:18;9.80;;;4.55;;
72573;SDS011;60603;52.548;13.420;2022-12-07T02:12:46;9.52;;;4.47;;
72573;SDS011;60603;52.548;13.420;2022-12-07T02:15:14;12.32;;;5.22;;
72573;SDS011;60603;52.548;13.420;2022-12-07T02:17:49;11.70;;;5.03;;
72573;SDS011;60603;52.548;13.420;2022-12-07T02:23:29;9.23;;;4.22;;
72573;SDS011;60603;52.548;13.420;2022-12-07T02:31:42;10.43;;;4.40;;
72573;SDS011;60603;52.548;13.420;2022-12-07T02:36:46;7.70;;;3.85;;
72573;SDS011;60603;52.548;13.420;2022-12-07T02:39:42;13.63;;;4.25;;
72573;SDS011;60603;52.548;13.420;2022-12-07T02:42:42;9.00;;;3.95;;
72573;SDS011;60603;52.548;13.420;2022-12-07T02:45:12;9.07;;;4.30;;
72573;SDS011;60603;52.548;13.420;2022-12-07T02:47:39;8.68;;;4.22;;
72573;SDS011;60603;52.548;13.420;2022-12-07T02:50:05;10.38;;;5.25;;
72573;SDS011;60603;52.548;13.420;2022-12-07T02:52:32;9.23;;;4.53;;
72573;SDS011;60603;52.548;13.420;2022-12-07T02:54:58;8.85;;;4.68;;
72573;SDS011;60603;52.548;13.420;2022-12-07T02:57:34;9.45;;;4.95;;
72573;SDS011;60603;52.548;13.420;2022-12-07T03:00:08;10.93;;;5.00;;
72573;SDS011;60603;52.548;13.420;2022-12-07T03:02:51;9.13;;;4.07;;
72573;SDS011;60603;52.548;13.420;2022-12-07T03:11:23;9.88;;;4.70;;
72573;SDS011;60603;52.548;13.420;2022-12-07T03:13:59;10.65;;;5.00;;
72573;SDS011;60603;52.548;13.420;2022-12-07T03:16:43;11.65;;;5.30;;
72573;SDS011;60603;52.548;13.420;2022-12-07T03:19:15;11.85;;;5.47;;
72573;SDS011;60603;52.548;13.420;2022-12-07T03:21:47;10.20;;;5.35;;
72573;SDS011;60603;52.548;13.420;2022-12-07T03:24:21;11.98;;;5.05;;
72573;SDS011;60603;52.548;13.420;2022-12-07T03:26:51;13.85;;;5.80;;
72573;SDS011;60603;52.548;13.420;2022-12-07T03:29:22;12.57;;;6.10;;
72573;SDS011;60603;52.548;13.420;2022-12-07T03:31:54;12.35;;;5.65;;
72573;SDS011;60603;52.548;13.420;2022-12-07T03:34:36;14.48;;;6.47;;
72573;SDS011;60603;52.548;13.420;2022-12-07T03:37:08;12.60;;;5.35;;
72573;SDS011;60603;52.548;13.420;2022-12-07T03:39:41;12.90;;;6.60;;
72573;SDS011;60603;52.548;13.420;2022-12-07T03:42:11;11.63;;;5.53;;
72573;SDS011;60603;52.548;13.420;2022-12-07T03:44:37;15.13;;;6.47;;
72573;SDS011;60603;52.548;13.420;2022-12-07T03:47:05;14.63;;;6.50;;
72573;SDS011;60603;52.548;13.420;2022-12-07T03:49:41;13.40;;;6.60;;
72573;SDS011;60603;52.548;13.420;2022-12-07T03:52:49;13.95;;;6.75;;
72573;SDS011;60603;52.548;13.420;2022-12-07T03:57:45;14.73;;;6.68;;
72573;SDS011;60603;52.548;13.420;2022-12-07T04:00:13;14.88;;;6.40;;
72573;SDS011;60603;52.548;13.420;2022-12-07T04:02:39;16.58;;;6.45;;
72573;SDS011;60603;52.548;13.420;2022-12-07T04:05:06;12.95;;;6.35;;
72573;SDS011;60603;52.548;13.420;2022-12-07T04:07:33;15.85;;;6.82;;
72573;SDS011;60603;52.548;13.420;2022-12-07T04:09:58;16.13;;;6.78;;
72573;SDS011;60603;52.548;13.420;2022-12-07T04:12:24;13.52;;;6.28;;
72573;SDS011;60603;52.548;13.420;2022-12-07T04:14:50;17.23;;;7.28;;
72573;SDS011;60603;52.548;13.420;2022-12-07T04:17:16;13.73;;;6.70;;
72573;SDS011;60603;52.548;13.420;2022-12-07T04:19:42;14.82;;;6.35;;
72573;SDS011;60603;52.548;13.420;2022-12-07T04:22:08;15.65;;;7.57;;
72573;SDS011;60603;52.548;13.420;2022-12-07T04:24:34;15.65;;;7.55;;
72573;SDS011;60603;52.548;13.420;2022-12-07T04:27:00;16.73;;;7.30;;
72573;SDS011;60603;52.548;13.420;2022-12-07T04:29:26;16.48;;;7.63;;
72573;SDS011;60603;52.548;13.420;2022-12-07T04:31:52;19.67;;;7.22;;
72573;SDS011;60603;52.548;13.420;2022-12-07T04:34:18;17.13;;;7.20;;
72573;SDS011;60603;52.548;13.420;2022-12-07T04:36:44;16.35;;;7.38;;
72573;SDS011;60603;52.548;13.420;2022-12-07T04:39:23;16.50;;;7.85;;
72573;SDS011;60603;52.548;13.420;2022-12-07T04:41:51;17.13;;;7.70;;
72573;SDS011;60603;52.548;13.420;2022-12-07T04:44:17;15.10;;;7.50;;
72573;SDS011;60603;52.548;13.420;2022-12-07T04:46:43;16.98;;;7.10;;
72573;SDS011;60603;52.548;13.420;2022-12-07T04:49:09;15.40;;;7.18;;
72573;SDS011;60603;52.548;13.420;2022-12-07T04:51:36;16.85;;;8.35;;
72573;SDS011;60603;52.548;13.420;2022-12-07T04:54:02;18.30;;;9.10;;
72573;SDS011;60603;52.548;13.420;2022-12-07T04:56:28;18.08;;;8.63;;
72573;SDS011;60603;52.548;13.420;2022-12-07T04:58:54;19.85;;;8.95;;
72573;SDS011;60603;52.548;13.420;2022-12-07T05:01:21;18.67;;;9.13;;
72573;SDS011;60603;52.548;13.420;2022-12-07T05:03:47;18.40;;;8.65;;
72573;SDS011;60603;52.548;13.420;2022-12-07T05:06:13;15.77;;;7.43;;
72573;SDS011;60603;52.548;13.420;2022-12-07T05:08:39;18.75;;;7.93;;
72573;SDS011;60603;52.548;13.420;2022-12-07T05:11:07;22.02;;;9.73;;
72573;SDS011;60603;52.548;13.420;2022-12-07T05:13:33;21.30;;;8.82;;
72573;SDS011;60603;52.548;13.420;2022-12-07T05:15:59;21.05;;;9.98;;
72573;SDS011;60603;52.548;13.420;2022-12-07T05:18:25;22.85;;;9.60;;
72573;SDS011;60603;52.548;13.420;2022-12-07T05:20:51;18.35;;;9.63;;
72573;SDS011;60603;52.548;13.420;2022-12-07T05:23:17;21.45;;;9.48;;
72573;SDS011;60603;52.548;13.420;2022-12-07T05:25:43;21.13;;;9.50;;
72573;SDS011;60603;52.548;13.420;2022-12-07T05:28:10;24.48;;;10.13;;
72573;SDS011;60603;52.548;13.420;2022-12-07T05:30:36;22.50;;;9.85;;
72573;SDS011;60603;52.548;13.420;2022-12-07T05:33:01;22.25;;;10.35;;
72573;SDS011;60603;52.548;13.420;2022-12-07T05:35:28;24.67;;;11.32;;
72573;SDS011;60603;52.548;13.420;2022-12-07T05:37:54;22.60;;;10.77;;
72573;SDS011;60603;52.548;13.420;2022-12-07T05:40:21;24.42;;;11.65;;
72573;SDS011;60603;52.548;13.420;2022-12-07T05:42:47;23.25;;;10.82;;
72573;SDS011;60603;52.548;13.420;2022-12-07T05:45:13;20.10;;;9.82;;
72573;SDS011;60603;52.548;13.420;2022-12-07T05:47:38;22.80;;;10.43;;
72573;SDS011;60603;52.548;13.420;2022-12-07T05:50:04;23.00;;;10.45;;
72573;SDS011;60603;52.548;13.420;2022-12-07T05:52:31;25.38;;;10.75;;
72573;SDS011;60603;52.548;13.420;2022-12-07T05:54:57;26.80;;;11.73;;
72573;SDS011;60603;52.548;13.420;2022-12-07T05:57:22;27.10;;;11.27;;
72573;SDS011;60603;52.548;13.420;2022-12-07T05:59:48;28.88;;;11.68;;
72573;SDS011;60603;52.548;13.420;2022-12-07T06:02:15;27.75;;;11.90;;
72573;SDS011;60603;52.548;13.420;2022-12-07T06:04:42;24.70;;;11.40;;
72573;SDS011;60603;52.548;13.420;2022-12-07T06:07:10;25.65;;;11.52;;
72573;SDS011;60603;52.548;13.420;2022-12-07T06:09:39;24.65;;;11.00;;
72573;SDS011;60603;52.548;13.420;2022-12-07T06:12:04;32.33;;;13.15;;
72573;SDS011;60603;52.548;13.420;2022-12-07T06:14:49;25.50;;;10.35;;
72573;SDS011;60603;52.548;13.420;2022-12-07T06:17:15;31.33;;;12.20;;
72573;SDS011;60603;52.548;13.420;2022-12-07T06:19:41;27.05;;;12.38;;
72573;SDS011;60603;52.548;13.420;2022-12-07T06:22:07;30.48;;;13.23;;
72573;SDS011;60603;52.548;13.420;2022-12-07T06:24:34;26.63;;;11.82;;
72573;SDS011;60603;52.548;13.420;2022-12-07T06:27:00;28.85;;;12.05;;
72573;SDS011;60603;52.548;13.420;2022-12-07T06:29:26;28.13;;;11.32;;
72573;SDS011;60603;52.548;13.420;2022-12-07T06:31:52;23.60;;;11.30;;
72573;SDS011;60603;52.548;13.420;2022-12-07T06:34:18;28.85;;;11.88;;
72573;SDS011;60603;52.548;13.420;2022-12-07T06:36:45;26.73;;;11.07;;
72573;SDS011;60603;52.548;13.420;2022-12-07T06:39:17;23.88;;;9.75;;
72573;SDS011;60603;52.548;13.420;2022-12-07T06:41:43;21.38;;;9.32;;
72573;SDS011;60603;52.548;13.420;2022-12-07T06:44:12;20.85;;;9.13;;
72573;SDS011;60603;52.548;13.420;2022-12-07T06:46:40;25.52;;;10.52;;
72573;SDS011;60603;52.548;13.420;2022-12-07T06:49:06;26.27;;;11.15;;
72573;SDS011;60603;52.548;13.420;2022-12-07T06:51:32;23.35;;;10.32;;
72573;SDS011;60603;52.548;13.420;2022-12-07T06:54:00;28.15;;;11.50;;
72573;SDS011;60603;52.548;13.420;2022-12-07T06:56:26;28.02;;;12.23;;
72573;SDS011;60603;52.548;13.420;2022-12-07T06:58:52;24.08;;;11.00;;
72573;SDS011;60603;52.548;13.420;2022-12-07T07:01:18;26.88;;;11.88;;
72573;SDS011;60603;52.548;13.420;2022-12-07T07:03:45;23.80;;;10.32;;
72573;SDS011;60603;52.548;13.420;2022-12-07T07:06:11;23.58;;;10.52;;
72573;SDS011;60603;52.548;13.420;2022-12-07T07:08:38;24.90;;;11.85;;
72573;SDS011;60603;52.548;13.420;2022-12-07T07:11:04;23.77;;;11.68;;
72573;SDS011;60603;52.548;13.420;2022-12-07T07:13:31;27.83;;;11.75;;
72573;SDS011;60603;52.548;13.420;2022-12-07T07:15:57;24.55;;;11.25;;
72573;SDS011;60603;52.548;13.420;2022-12-07T07:18:23;26.42;;;12.02;;
72573;SDS011;60603;52.548;13.420;2022-12-07T07:20:50;22.13;;;10.95;;
72573;SDS011;60603;52.548;13.420;2022-12-07T07:23:16;22.05;;;10.45;;
72573;SDS011;60603;52.548;13.420;2022-12-07T07:25:42;24.63;;;11.38;;
72573;SDS011;60603;52.548;13.420;2022-12-07T07:28:08;25.40;;;10.48;;
72573;SDS011;60603;52.548;13.420;2022-12-07T07:30:34;24.15;;;10.48;;
72573;SDS011;60603;52.548;13.420;2022-12-07T07:33:00;23.05;;;10.82;;
72573;SDS011;60603;52.548;13.420;2022-12-07T07:35:27;22.13;;;10.05;;
72573;SDS011;60603;52.548;13.420;2022-12-07T07:37:53;22.10;;;9.32;;
72573;SDS011;60603;52.548;13.420;2022-12-07T07:40:19;26.50;;;10.18;;
72573;SDS011;60603;52.548;13.420;2022-12-07T07:42:50;24.60;;;10.50;;
72573;SDS011;60603;52.548;13.420;2022-12-07T07:45:17;24.08;;;8.70;;
72573;SDS011;60603;52.548;13.420;2022-12-07T07:47:44;20.35;;;9.98;;
72573;SDS011;60603;52.548;13.420;2022-12-07T07:50:10;19.85;;;8.57;;
72573;SDS011;60603;52.548;13.420;2022-12-07T07:52:36;16.63;;;8.65;;
72573;SDS011;60603;52.548;13.420;2022-12-07T07:55:02;18.02;;;7.85;;
72573;SDS011;60603;52.548;13.420;2022-12-07T07:57:28;19.63;;;8.20;;
72573;SDS011;60603;52.548;13.420;2022-12-07T07:59:54;16.92;;;7.88;;
72573;SDS011;60603;52.548;13.420;2022-12-07T08:02:20;17.42;;;7.50;;
72573;SDS011;60603;52.548;13.420;2022-12-07T08:04:46;16.58;;;7.65;;
72573;SDS011;60603;52.548;13.420;2022-12-07T08:07:12;14.25;;;7.47;;
72573;SDS011;60603;52.548;13.420;2022-12-07T08:09:39;16.15;;;6.50;;
72573;SDS011;60603;52.548;13.420;2022-12-07T08:12:05;12.90;;;6.13;;
72573;SDS011;60603;52.548;13.420;2022-12-07T08:14:32;16.45;;;6.93;;
72573;SDS011;60603;52.548;13.420;2022-12-07T08:16:58;14.68;;;6.60;;
72573;SDS011;60603;52.548;13.420;2022-12-07T08:19:23;12.30;;;6.13;;
72573;SDS011;60603;52.548;13.420;2022-12-07T08:21:50;11.85;;;5.90;;
72573;SDS011;60603;52.548;13.420;2022-12-07T08:24:15;12.75;;;6.18;;
72573;SDS011;60603;52.548;13.420;2022-12-07T08:26:42;11.05;;;4.57;;
72573;SDS011;60603;52.548;13.420;2022-12-07T08:29:07;13.77;;;5.00;;
72573;SDS011;60603;52.548;13.420;2022-12-07T08:31:33;13.70;;;5.10;;
72573;SDS011;60603;52.548;13.420;2022-12-07T08:33:59;10.23;;;5.05;;
72573;SDS011;60603;52.548;13.420;2022-12-07T08:36:25;8.95;;;5.05;;
72573;SDS011;60603;52.548;13.420;2022-12-07T08:38:51;8.15;;;4.78;;
72573;SDS011;60603;52.548;13.420;2022-12-07T08:41:17;9.10;;;4.32;;
72573;SDS011;60603;52.548;13.420;2022-12-07T08:43:45;9.40;;;4.13;;
72573;SDS011;60603;52.548;13.420;2022-12-07T08:49:02;9.63;;;4.47;;
72573;SDS011;60603;52.548;13.420;2022-12-07T08:51:39;7.65;;;3.83;;
72573;SDS011;60603;52.548;13.420;2022-12-07T08:54:08;6.63;;;3.00;;
72573;SDS011;60603;52.548;13.420;2022-12-07T08:56:36;8.30;;;3.90;;
72573;SDS011;60603;52.548;13.420;2022-12-07T08:59:02;6.65;;;3.33;;
72573;SDS011;60603;52.548;13.420;2022-12-07T09:01:29;7.68;;;3.10;;
72573;SDS011;60603;52.548;13.420;2022-12-07T09:03:55;6.78;;;3.00;;
72573;SDS011;60603;52.548;13.420;2022-12-07T09:06:21;9.93;;;2.90;;
72573;SDS011;60603;52.548;13.420;2022-12-07T09:08:47;7.22;;;3.00;;
72573;SDS011;60603;52.548;13.420;2022-12-07T09:11:16;5.70;;;2.63;;
72573;SDS011;60603;52.548;13.420;2022-12-07T09:13:42;4.90;;;2.22;;
72573;SDS011;60603;52.548;13.420;2022-12-07T09:16:08;7.30;;;3.20;;
72573;SDS011;60603;52.548;13.420;2022-12-07T09:18:33;5.82;;;2.50;;
72573;SDS011;60603;52.548;13.420;2022-12-07T09:20:59;4.72;;;2.38;;
72573;SDS011;60603;52.548;13.420;2022-12-07T09:23:25;7.25;;;2.53;;
72573;SDS011;60603;52.548;13.420;2022-12-07T09:25:51;5.57;;;2.40;;
72573;SDS011;60603;52.548;13.420;2022-12-07T09:28:16;5.25;;;2.20;;
72573;SDS011;60603;52.548;13.420;2022-12-07T09:30:46;3.15;;;1.67;;
72573;SDS011;60603;52.548;13.420;2022-12-07T09:33:12;5.45;;;1.80;;
72573;SDS011;60603;52.548;13.420;2022-12-07T09:35:43;4.93;;;2.83;;
72573;SDS011;60603;52.548;13.420;2022-12-07T09:38:10;4.18;;;1.83;;
72573;SDS011;60603;52.548;13.420;2022-12-07T09:40:36;3.38;;;1.67;;
72573;SDS011;60603;52.548;13.420;2022-12-07T09:43:01;4.18;;;2.17;;
72573;SDS011;60603;52.548;13.420;2022-12-07T09:45:32;6.55;;;2.45;;
72573;SDS011;60603;52.548;13.420;2022-12-07T09:48:00;5.25;;;2.47;;
72573;SDS011;60603;52.548;13.420;2022-12-07T09:50:27;6.53;;;2.47;;
72573;SDS011;60603;52.548;13.420;2022-12-07T09:52:54;4.45;;;2.17;;
72573;SDS011;60603;52.548;13.420;2022-12-07T09:55:28;5.15;;;2.35;;
72573;SDS011;60603;52.548;13.420;2022-12-07T09:57:54;4.15;;;2.13;;
72573;SDS011;60603;52.548;13.420;2022-12-07T10:00:22;4.60;;;2.42;;
72573;SDS011;60603;52.548;13.420;2022-12-07T10:02:55;4.95;;;2.30;;
72573;SDS011;60603;52.548;13.420;2022-12-07T10:05:34;5.15;;;2.00;;
72573;SDS011;60603;52.548;13.420;2022-12-07T10:08:04;4.05;;;1.88;;
72573;SDS011;60603;52.548;13.420;2022-12-07T10:10:31;3.40;;;1.80;;
72573;SDS011;60603;52.548;13.420;2022-12-07T10:13:03;4.32;;;1.85;;
72573;SDS011;60603;52.548;13.420;2022-12-07T10:18:33;6.72;;;1.90;;
72573;SDS011;60603;52.548;13.420;2022-12-07T10:21:14;3.53;;;1.77;;
72573;SDS011;60603;52.548;13.420;2022-12-07T10:26:32;4.18;;;1.90;;
72573;SDS011;60603;52.548;13.420;2022-12-07T10:29:20;3.58;;;1.88;;
72573;SDS011;60603;52.548;13.420;2022-12-07T10:31:48;3.65;;;1.83;;
72573;SDS011;60603;52.548;13.420;2022-12-07T10:34:23;4.75;;;2.03;;
72573;SDS011;60603;52.548;13.420;2022-12-07T10:36:52;5.95;;;1.98;;
72573;SDS011;60603;52.548;13.420;2022-12-07T10:39:22;3.92;;;1.80;;
72573;SDS011;60603;52.548;13.420;2022-12-07T10:41:55;5.10;;;2.20;;
72573;SDS011;60603;52.548;13.420;2022-12-07T10:44:25;2.95;;;1.65;;
72573;SDS011;60603;52.548;13.420;2022-12-07T10:47:25;6.68;;;1.83;;
72573;SDS011;60603;52.548;13.420;2022-12-07T10:50:14;4.88;;;2.15;;
72573;SDS011;60603;52.548;13.420;2022-12-07T10:53:03;5.28;;;2.08;;
72573;SDS011;60603;52.548;13.420;2022-12-07T11:00:56;6.97;;;2.60;;
72573;SDS011;60603;52.548;13.420;2022-12-07T11:15:18;5.72;;;2.53;;
72573;SDS011;60603;52.548;13.420;2022-12-07T11:23:13;7.18;;;3.30;;
72573;SDS011;60603;52.548;13.420;2022-12-07T11:36:51;4.88;;;2.65;;
72573;SDS011;60603;52.548;13.420;2022-12-07T11:41:44;8.18;;;2.90;;
72573;SDS011;60603;52.548;13.420;2022-12-07T11:47:08;10.00;;;3.80;;
72573;SDS011;60603;52.548;13.420;2022-12-07T11:50:01;8.90;;;3.67;;
72573;SDS011;60603;52.548;13.420;2022-12-07T11:55:16;10.10;;;3.10;;
72573;SDS011;60603;52.548;13.420;2022-12-07T11:58:03;8.38;;;3.53;;
72573;SDS011;60603;52.548;13.420;2022-12-07T12:00:30;6.63;;;3.20;;
72573;SDS011;60603;52.548;13.420;2022-12-07T12:03:04;6.50;;;3.28;;
72573;SDS011;60603;52.548;13.420;2022-12-07T12:05:36;6.85;;;3.13;;
72573;SDS011;60603;52.548;13.420;2022-12-07T12:08:13;7.15;;;3.08;;
72573;SDS011;60603;52.548;13.420;2022-12-07T12:16:21;7.38;;;3.65;;
72573;SDS011;60603;52.548;13.420;2022-12-07T12:19:10;8.25;;;3.75;;
72573;SDS011;60603;52.548;13.420;2022-12-07T12:21:42;8.65;;;3.17;;
72573;SDS011;60603;52.548;13.420;2022-12-07T12:24:10;9.68;;;3.10;;
72573;SDS011;60603;52.548;13.420;2022-12-07T12:26:48;8.95;;;3.65;;
72573;SDS011;60603;52.548;13.420;2022-12-07T12:29:41;5.55;;;3.40;;
72573;SDS011;60603;52.548;13.420;2022-12-07T12:32:19;10.85;;;3.83;;
72573;SDS011;60603;52.548;13.420;2022-12-07T12:40:42;11.73;;;3.35;;
72573;SDS011;60603;52.548;13.420;2022-12-07T12:45:26;9.82;;;4.50;;
72573;SDS011;60603;52.548;13.420;2022-12-07T12:50:22;7.22;;;3.58;;
72573;SDS011;60603;52.548;13.420;2022-12-07T12:52:51;8.13;;;2.55;;
72573;SDS011;60603;52.548;13.420;2022-12-07T12:55:20;10.10;;;3.83;;
72573;SDS011;60603;52.548;13.420;2022-12-07T13:00:46;5.05;;;2.60;;
72573;SDS011;60603;52.548;13.420;2022-12-07T13:03:23;7.90;;;2.47;;
72573;SDS011;60603;52.548;13.420;2022-12-07T13:08:45;7.35;;;2.58;;
72573;SDS011;60603;52.548;13.420;2022-12-07T13:11:18;7.07;;;2.80;;
72573;SDS011;60603;52.548;13.420;2022-12-07T13:13:51;7.82;;;2.45;;
72573;SDS011;60603;52.548;13.420;2022-12-07T13:18:42;5.07;;;2.22;;
72573;SDS011;60603;52.548;13.420;2022-12-07T13:34:26;7.85;;;2.50;;
72573;SDS011;60603;52.548;13.420;2022-12-07T13:36:52;7.40;;;2.60;;
72573;SDS011;60603;52.548;13.420;2022-12-07T13:41:49;7.20;;;2.30;;
72573;SDS011;60603;52.548;13.420;2022-12-07T13:44:19;5.43;;;2.40;;
72573;SDS011;60603;52.548;13.420;2022-12-07T13:49:30;6.55;;;2.72;;
72573;SDS011;60603;52.548;13.420;2022-12-07T13:52:11;6.40;;;2.17;;
72573;SDS011;60603;52.548;13.420;2022-12-07T13:54:43;6.57;;;2.28;;
72573;SDS011;60603;52.548;13.420;2022-12-07T13:57:14;6.43;;;2.00;;
72573;SDS011;60603;52.548;13.420;2022-12-07T13:59:41;5.13;;;2.10;;
72573;SDS011;60603;52.548;13.420;2022-12-07T14:05:26;7.00;;;2.40;;
72573;SDS011;60603;52.548;13.420;2022-12-07T14:07:54;6.57;;;1.92;;
72573;SDS011;60603;52.548;13.420;2022-12-07T14:10:39;8.38;;;2.30;;
72573;SDS011;60603;52.548;13.420;2022-12-07T14:18:53;6.40;;;2.25;;
72573;SDS011;60603;52.548;13.420;2022-12-07T14:21:20;6.90;;;1.70;;
72573;SDS011;60603;52.548;13.420;2022-12-07T14:24:09;5.05;;;1.90;;
72573;SDS011;60603;52.548;13.420;2022-12-07T14:26:43;6.05;;;2.08;;
72573;SDS011;60603;52.548;13.420;2022-12-07T14:31:51;6.55;;;1.95;;
72573;SDS011;60603;52.548;13.420;2022-12-07T14:34:21;6.53;;;2.42;;
72573;SDS011;60603;52.548;13.420;2022-12-07T14:36:49;7.82;;;2.75;;
72573;SDS011;60603;52.548;13.420;2022-12-07T14:39:15;8.43;;;2.60;;
72573;SDS011;60603;52.548;13.420;2022-12-07T14:41:41;6.00;;;2.40;;
72573;SDS011;60603;52.548;13.420;2022-12-07T14:44:17;6.65;;;2.25;;
72573;SDS011;60603;52.548;13.420;2022-12-07T14:46:45;9.82;;;2.08;;
72573;SDS011;60603;52.548;13.420;2022-12-07T14:49:11;7.10;;;2.40;;
72573;SDS011;60603;52.548;13.420;2022-12-07T14:51:37;9.63;;;2.40;;
72573;SDS011;60603;52.548;13.420;2022-12-07T14:54:05;5.72;;;2.40;;
72573;SDS011;60603;52.548;13.420;2022-12-07T14:56:32;7.13;;;2.50;;
72573;SDS011;60603;52.548;13.420;2022-12-07T14:58:58;7.43;;;2.63;;
72573;SDS011;60603;52.548;13.420;2022-12-07T15:01:24;6.93;;;2.97;;
72573;SDS011;60603;52.548;13.420;2022-12-07T15:03:50;7.50;;;2.90;;
72573;SDS011;60603;52.548;13.420;2022-12-07T15:06:16;7.03;;;2.80;;
72573;SDS011;60603;52.548;13.420;2022-12-07T15:08:43;8.38;;;2.80;;
72573;SDS011;60603;52.548;13.420;2022-12-07T15:11:11;10.27;;;3.35;;
72573;SDS011;60603;52.548;13.420;2022-12-07T15:13:38;5.32;;;2.25;;
72573;SDS011;60603;52.548;13.420;2022-12-07T15:16:22;6.22;;;2.05;;
72573;SDS011;60603;52.548;13.420;2022-12-07T15:18:48;8.68;;;2.70;;
72573;SDS011;60603;52.548;13.420;2022-12-07T15:21:14;9.75;;;2.85;;
72573;SDS011;60603;52.548;13.420;2022-12-07T15:23:41;9.68;;;3.20;;
72573;SDS011;60603;52.548;13.420;2022-12-07T15:26:07;7.53;;;2.83;;
72573;SDS011;60603;52.548;13.420;2022-12-07T15:28:33;8.45;;;2.20;;
72573;SDS011;60603;52.548;13.420;2022-12-07T15:30:59;6.68;;;2.30;;
72573;SDS011;60603;52.548;13.420;2022-12-07T15:33:25;4.07;;;1.90;;
72573;SDS011;60603;52.548;13.420;2022-12-07T15:35:51;6.60;;;2.53;;
72573;SDS011;60603;52.548;13.420;2022-12-07T15:38:16;5.97;;;2.13;;
72573;SDS011;60603;52.548;13.420;2022-12-07T15:40:42;8.95;;;2.67;;
72573;SDS011;60603;52.548;13.420;2022-12-07T15:43:09;6.05;;;2.03;;
72573;SDS011;60603;52.548;13.420;2022-12-07T15:45:54;5.10;;;2.33;;
72573;SDS011;60603;52.548;13.420;2022-12-07T15:48:20;5.05;;;1.77;;
72573;SDS011;60603;52.548;13.420;2022-12-07T15:50:47;6.32;;;1.98;;
72573;SDS011;60603;52.548;13.420;2022-12-07T15:53:13;8.02;;;2.00;;
72573;SDS011;60603;52.548;13.420;2022-12-07T15:55:39;5.05;;;1.98;;
72573;SDS011;60603;52.548;13.420;2022-12-07T15:58:06;7.97;;;2.10;;
72573;SDS011;60603;52.548;13.420;2022-12-07T16:00:31;5.65;;;2.20;;
72573;SDS011;60603;52.548;13.420;2022-12-07T16:02:57;8.63;;;2.42;;
72573;SDS011;60603;52.548;13.420;2022-12-07T16:05:23;6.60;;;2.72;;
72573;SDS011;60603;52.548;13.420;2022-12-07T16:07:49;9.13;;;2.38;;
72573;SDS011;60603;52.548;13.420;2022-12-07T16:10:15;7.50;;;2.60;;
72573;SDS011;60603;52.548;13.420;2022-12-07T16:12:41;12.95;;;3.53;;
72573;SDS011;60603;52.548;13.420;2022-12-07T16:15:07;6.85;;;1.95;;
72573;SDS011;60603;52.548;13.420;2022-12-07T16:17:33;7.70;;;2.03;;
72573;SDS011;60603;52.548;13.420;2022-12-07T16:19:59;4.60;;;2.08;;
72573;SDS011;60603;52.548;13.420;2022-12-07T16:22:25;8.13;;;2.05;;
72573;SDS011;60603;52.548;13.420;2022-12-07T16:24:51;6.93;;;2.78;;
72573;SDS011;60603;52.548;13.420;2022-12-07T16:27:17;5.50;;;2.28;;
72573;SDS011;60603;52.548;13.420;2022-12-07T16:29:43;7.55;;;1.77;;
72573;SDS011;60603;52.548;13.420;2022-12-07T16:32:09;8.98;;;3.10;;
72573;SDS011;60603;52.548;13.420;2022-12-07T16:34:35;9.75;;;3.17;;
72573;SDS011;60603;52.548;13.420;2022-12-07T16:37:01;8.80;;;2.55;;
72573;SDS011;60603;52.548;13.420;2022-12-07T16:39:27;10.88;;;2.85;;
72573;SDS011;60603;52.548;13.420;2022-12-07T16:41:52;8.15;;;2.25;;
72573;SDS011;60603;52.548;13.420;2022-12-07T16:44:18;9.38;;;2.67;;
72573;SDS011;60603;52.548;13.420;2022-12-07T16:46:44;8.52;;;3.47;;